createdAt,value
2023-05-11T00:02:44.096Z,0.10
2023-05-11T00:05:48.400Z,0.10
2023-05-11T00:08:52.530Z,0.10
2023-05-11T00:11:56.860Z,0.20
2023-05-11T00:15:00.885Z,0.20
2023-05-11T00:18:05.253Z,0.10
2023-05-11T00:21:09.717Z,0.40
2023-05-11T00:24:14.153Z,0.10
2023-05-11T00:27:18.514Z,0.20
2023-05-11T00:30:22.720Z,0.30
2023-05-11T00:33:26.829Z,0.20
2023-05-11T00:36:31.021Z,0.20
2023-05-11T00:39:35.849Z,0.10
2023-05-11T00:42:40.267Z,0.13
2023-05-11T00:45:44.325Z,0.20
2023-05-11T00:48:48.524Z,0.10
2023-05-11T00:51:53.118Z,0.10
2023-05-11T00:54:57.422Z,0.38
2023-05-11T00:58:01.711Z,0.20
2023-05-11T01:01:05.891Z,0.40
2023-05-11T01:04:10.226Z,0.20
2023-05-11T01:07:14.633Z,0.40
2023-05-11T01:10:19.418Z,0.50
2023-05-11T01:13:24.334Z,0.30
2023-05-11T01:16:28.499Z,0.35
2023-05-11T01:19:32.882Z,0.40
2023-05-11T01:22:37.133Z,0.25
2023-05-11T01:25:41.464Z,0.20
2023-05-11T01:28:45.659Z,0.35
2023-05-11T01:31:49.874Z,0.20
2023-05-11T01:34:54.064Z,0.13
2023-05-11T01:37:58.068Z,0.10
2023-05-11T01:41:02.581Z,0.30
2023-05-11T01:44:06.867Z,0.28
2023-05-11T01:47:10.952Z,0.22
2023-05-11T01:50:15.114Z,0.47
2023-05-11T01:53:19.424Z,0.52
2023-05-11T01:56:23.678Z,0.30
2023-05-11T01:59:28.293Z,0.22
2023-05-11T02:02:32.400Z,0.20
2023-05-11T02:05:36.965Z,0.30
2023-05-11T02:08:41.202Z,0.30
2023-05-11T02:11:45.499Z,0.20
2023-05-11T02:14:49.598Z,0.20
2023-05-11T02:17:54.075Z,0.40
2023-05-11T02:20:58.636Z,0.22
2023-05-11T02:24:02.917Z,0.20
2023-05-11T02:27:07.211Z,0.10
2023-05-11T02:30:11.340Z,0.40
2023-05-11T02:33:15.471Z,0.43
2023-05-11T02:36:19.932Z,0.30
2023-05-11T02:39:24.069Z,0.35
2023-05-11T02:42:28.202Z,0.30
2023-05-11T02:45:32.227Z,0.20
2023-05-11T02:48:36.422Z,0.25
2023-05-11T02:51:40.714Z,0.30
2023-05-11T02:54:44.916Z,0.32
2023-05-11T02:57:49.280Z,0.30
2023-05-11T03:00:53.610Z,0.20
2023-05-11T03:03:57.965Z,0.45
2023-05-11T03:07:02.549Z,0.20
2023-05-11T03:10:06.734Z,0.25
2023-05-11T03:13:11.152Z,0.30
2023-05-11T03:16:15.277Z,0.25
2023-05-11T03:19:19.355Z,0.22
2023-05-11T03:22:23.515Z,0.30
2023-05-11T03:25:27.951Z,0.30
2023-05-11T03:28:32.202Z,0.20
2023-05-11T03:31:36.380Z,0.30
2023-05-11T03:34:40.672Z,0.10
2023-05-11T03:37:44.958Z,0.30
2023-05-11T03:40:49.363Z,0.30
2023-05-11T03:43:53.722Z,0.40
2023-05-11T03:46:57.880Z,0.30
2023-05-11T03:50:02.184Z,0.15
2023-05-11T03:53:06.753Z,0.28
2023-05-11T03:56:11.178Z,0.40
2023-05-11T03:59:15.809Z,0.38
2023-05-11T04:02:20.185Z,0.40
2023-05-11T04:05:24.347Z,0.20
2023-05-11T04:08:28.716Z,0.20
2023-05-11T04:11:33.397Z,0.20
2023-05-11T04:14:37.740Z,0.25
2023-05-11T04:17:41.896Z,0.45
2023-05-11T04:20:46.511Z,0.50
2023-05-11T04:23:51.223Z,0.50
2023-05-11T04:26:55.555Z,0.50
2023-05-11T04:29:59.858Z,0.20
2023-05-11T04:33:04.067Z,0.40
2023-05-11T04:36:08.544Z,0.43
2023-05-11T04:39:12.702Z,0.40
2023-05-11T04:42:17.107Z,0.43
2023-05-11T04:45:21.240Z,0.50
2023-05-11T04:48:25.570Z,0.60
2023-05-11T04:51:29.742Z,0.65
2023-05-11T04:54:34.382Z,0.60
2023-05-11T04:57:39.098Z,0.40
2023-05-11T05:00:43.381Z,0.40
2023-05-11T05:03:47.720Z,0.30
2023-05-11T05:06:52.064Z,0.60
2023-05-11T05:09:56.556Z,0.55
2023-05-11T05:13:00.851Z,0.40
2023-05-11T05:16:05.192Z,0.30
2023-05-11T05:19:09.265Z,0.20
2023-05-11T05:22:13.799Z,0.40
2023-05-11T05:25:18.129Z,0.50
2023-05-11T05:28:22.640Z,0.50
2023-05-11T05:31:26.966Z,0.88
2023-05-11T05:34:30.940Z,0.50
2023-05-11T05:37:35.086Z,0.40
2023-05-11T05:40:39.439Z,0.40
2023-05-11T05:43:43.788Z,0.80
2023-05-11T05:46:48.274Z,0.65
2023-05-11T05:49:52.563Z,0.77
2023-05-11T05:52:57.152Z,0.63
2023-05-11T05:56:01.577Z,0.88
2023-05-11T05:59:06.153Z,0.50
2023-05-11T06:02:10.712Z,0.30
2023-05-11T06:05:14.965Z,0.77
2023-05-11T06:08:19.158Z,0.70
2023-05-11T06:11:23.367Z,0.70
2023-05-11T06:14:27.948Z,0.80
2023-05-11T06:17:32.452Z,0.75
2023-05-11T06:20:36.818Z,0.90
2023-05-11T06:23:41.202Z,0.60
2023-05-11T06:26:45.676Z,0.68
2023-05-11T06:29:50.097Z,0.73
2023-05-11T06:32:54.523Z,0.77
2023-05-11T06:35:58.814Z,0.68
2023-05-11T06:39:02.989Z,0.60
2023-05-11T06:42:07.459Z,0.88
2023-05-11T06:45:12.122Z,0.82
2023-05-11T06:48:16.656Z,0.63
2023-05-11T06:51:20.626Z,0.90
2023-05-11T06:54:24.937Z,0.63
2023-05-11T06:57:29.292Z,0.80
2023-05-11T07:00:33.796Z,0.45
2023-05-11T07:03:38.148Z,0.52
2023-05-11T07:06:42.660Z,0.57
2023-05-11T07:09:46.834Z,0.70
2023-05-11T07:12:51.200Z,0.50
2023-05-11T07:15:57.537Z,0.80
2023-05-11T07:19:02.313Z,0.50
2023-05-11T07:22:06.726Z,0.40
2023-05-11T07:25:10.731Z,0.40
2023-05-11T07:28:15.229Z,0.50
2023-05-11T07:31:19.751Z,0.98
2023-05-11T07:34:24.344Z,0.73
2023-05-11T07:37:28.749Z,0.57
2023-05-11T07:40:32.851Z,0.80
2023-05-11T07:43:37.233Z,0.60
2023-05-11T07:46:42.014Z,0.50
2023-05-11T07:49:46.352Z,0.90
2023-05-11T07:52:50.550Z,0.65
2023-05-11T07:55:54.880Z,0.70
2023-05-11T07:58:59.153Z,0.90
2023-05-11T08:02:03.155Z,0.35
2023-05-11T08:05:07.347Z,1.00
2023-05-11T08:08:11.686Z,0.10
2023-05-11T08:11:16.018Z,0.60
2023-05-11T08:14:20.153Z,0.43
2023-05-11T08:17:24.590Z,0.52
2023-05-11T08:20:28.932Z,0.70
2023-05-11T08:23:33.194Z,0.40
2023-05-11T08:26:37.353Z,0.10
2023-05-11T08:29:41.527Z,0.50
2023-05-11T08:32:57.890Z,0.45
2023-05-11T08:36:03.499Z,0.30
2023-05-11T08:39:07.967Z,0.30
2023-05-11T08:42:12.235Z,0.45
2023-05-11T08:45:16.773Z,0.47
2023-05-11T08:48:21.436Z,0.50
2023-05-11T08:51:25.690Z,0.30
2023-05-11T08:54:29.735Z,0.22
2023-05-11T08:57:34.145Z,0.30
2023-05-11T09:00:38.538Z,0.30
2023-05-11T09:03:43.202Z,0.40
2023-05-11T09:06:47.567Z,0.30
2023-05-11T09:09:51.747Z,0.50
2023-05-11T09:12:56.048Z,0.40
2023-05-11T09:16:00.316Z,0.43
2023-05-11T09:19:04.888Z,0.30
2023-05-11T09:22:09.291Z,0.75
2023-05-11T09:25:13.470Z,0.40
2023-05-11T09:28:25.501Z,0.45
2023-05-11T09:31:30.222Z,0.50
2023-05-11T09:34:34.360Z,0.60
2023-05-11T09:37:38.675Z,1.13
2023-05-11T09:40:43.359Z,0.70
2023-05-11T09:43:47.746Z,0.68
2023-05-11T09:46:51.951Z,0.57
2023-05-11T09:49:56.518Z,0.25
2023-05-11T09:53:01.013Z,0.32
2023-05-11T09:56:05.361Z,0.30
2023-05-11T09:59:09.726Z,0.40
2023-05-11T10:02:13.966Z,0.13
2023-05-11T10:05:18.473Z,0.20
2023-05-11T10:08:22.646Z,0.32
2023-05-11T10:11:26.857Z,0.20
2023-05-11T10:14:31.346Z,0.15
2023-05-11T10:17:35.574Z,0.20
2023-05-11T10:20:39.824Z,0.10
2023-05-11T10:23:43.985Z,0.20
2023-05-11T10:26:48.432Z,0.20
2023-05-11T10:29:52.678Z,0.10
2023-05-11T10:32:56.953Z,0.25
2023-05-11T10:36:01.096Z,0.20
2023-05-11T10:39:05.593Z,0.10
2023-05-11T10:42:09.955Z,0.10
2023-05-11T10:45:14.978Z,0.03
2023-05-11T10:48:19.259Z,0.10
2023-05-11T10:51:24.497Z,0.10
2023-05-11T10:54:28.948Z,0.20
2023-05-11T10:57:33.894Z,0.17
2023-05-11T11:00:38.352Z,0.00
2023-05-11T11:03:42.711Z,0.13
2023-05-11T11:06:46.620Z,0.38
2023-05-11T11:09:51.006Z,0.40
2023-05-11T11:12:55.547Z,0.30
2023-05-11T11:15:59.839Z,0.10
2023-05-11T11:19:04.117Z,0.10
2023-05-11T11:22:08.319Z,0.10
2023-05-11T11:25:12.539Z,0.10
2023-05-11T11:28:17.224Z,0.10
2023-05-11T11:31:21.596Z,0.15
2023-05-11T11:34:25.881Z,0.10
2023-05-11T11:37:29.941Z,0.10
2023-05-11T11:40:46.972Z,0.10
2023-05-11T11:43:54.802Z,0.10
2023-05-11T11:46:59.172Z,0.13
2023-05-11T11:50:03.422Z,0.35
2023-05-11T11:53:07.673Z,1.08
2023-05-11T11:56:11.949Z,0.30
2023-05-11T11:59:16.483Z,0.95
2023-05-11T12:02:20.692Z,0.10
2023-05-11T12:05:25.423Z,0.25
2023-05-11T12:08:29.848Z,0.00
2023-05-11T12:11:33.900Z,0.20
2023-05-11T12:14:38.244Z,0.22
2023-05-11T12:17:42.793Z,0.20
2023-05-11T12:20:47.156Z,0.20
2023-05-11T12:23:51.215Z,0.10
2023-05-11T12:26:55.462Z,1.38
2023-05-11T12:29:59.872Z,0.30
2023-05-11T12:33:04.305Z,0.35
2023-05-11T12:36:08.780Z,0.05
2023-05-11T12:39:13.113Z,0.30
2023-05-11T12:42:17.589Z,0.10
2023-05-11T12:45:22.122Z,0.30
2023-05-11T12:48:26.608Z,0.30
2023-05-11T12:51:31.020Z,0.40
2023-05-11T12:54:35.529Z,0.20
2023-05-11T12:57:39.931Z,0.10
2023-05-11T13:00:44.647Z,0.05
2023-05-11T13:03:49.621Z,0.40
2023-05-11T13:06:54.141Z,0.17
2023-05-11T13:09:58.284Z,0.17
2023-05-11T13:13:02.786Z,0.17
2023-05-11T13:16:07.167Z,0.10
2023-05-11T13:19:11.756Z,0.20
2023-05-11T13:22:15.891Z,0.30
2023-05-11T13:25:20.231Z,0.40
2023-05-11T13:28:24.636Z,0.52
2023-05-11T13:31:29.130Z,0.40
2023-05-11T13:34:33.509Z,0.50
2023-05-11T13:37:37.914Z,0.47
2023-05-11T13:40:42.214Z,0.20
2023-05-11T13:43:46.300Z,0.40
2023-05-11T13:46:50.825Z,0.30
2023-05-11T13:49:55.240Z,0.82
2023-05-11T13:52:59.507Z,0.32
2023-05-11T13:56:03.755Z,0.30
2023-05-11T13:59:07.984Z,0.40
2023-05-11T14:02:12.346Z,0.70
2023-05-11T14:05:17.129Z,0.30
2023-05-11T14:08:21.846Z,0.30
2023-05-11T14:11:26.382Z,0.20
2023-05-11T14:14:30.624Z,0.30
2023-05-11T14:17:35.370Z,0.32
2023-05-11T14:20:39.811Z,0.70
2023-05-11T14:23:57.603Z,0.40
2023-05-11T14:27:09.228Z,0.40
2023-05-11T14:30:13.795Z,0.55
2023-05-11T14:33:36.918Z,0.50
2023-05-11T14:36:42.251Z,0.40
2023-05-11T14:39:46.367Z,0.38
2023-05-11T14:42:50.664Z,0.55
2023-05-11T14:45:55.102Z,0.60
2023-05-11T14:48:59.423Z,0.30
2023-05-11T14:52:03.494Z,0.60
2023-05-11T14:55:07.965Z,0.40
2023-05-11T14:58:12.434Z,0.40
2023-05-11T15:01:16.721Z,0.43
2023-05-11T15:04:21.273Z,0.40
2023-05-11T15:07:25.899Z,0.28
2023-05-11T15:10:30.097Z,0.47
2023-05-11T15:13:34.719Z,0.25
2023-05-11T15:16:39.040Z,0.15
2023-05-11T15:19:43.505Z,0.30
2023-05-11T15:22:47.662Z,0.20
2023-05-11T15:25:51.714Z,0.20
2023-05-11T15:28:55.917Z,0.30
2023-05-11T15:32:00.318Z,0.40
2023-05-11T15:35:04.874Z,0.63
2023-05-11T15:38:09.018Z,0.30
2023-05-11T15:41:13.217Z,0.10
2023-05-11T15:44:19.285Z,0.10
2023-05-11T15:47:23.569Z,0.10
2023-05-11T15:50:27.832Z,0.00
2023-05-11T15:53:33.507Z,0.08
2023-05-11T15:56:38.536Z,0.20
2023-05-11T15:59:42.673Z,0.03
2023-05-11T16:02:47.188Z,0.60
2023-05-11T16:05:51.644Z,0.15
2023-05-11T16:08:55.950Z,0.10
2023-05-11T16:12:00.075Z,0.13
2023-05-11T16:15:04.615Z,0.10
2023-05-11T16:18:08.994Z,0.05
2023-05-11T16:21:13.463Z,0.20
2023-05-11T16:24:17.899Z,0.10
2023-05-11T16:27:22.480Z,0.20
2023-05-11T16:30:27.061Z,0.00
2023-05-11T16:33:31.778Z,0.00
2023-05-11T16:36:36.161Z,0.20
2023-05-11T16:39:40.346Z,0.20
2023-05-11T16:42:44.612Z,0.00
2023-05-11T16:45:48.851Z,0.10
2023-05-11T16:48:52.983Z,0.10
2023-05-11T16:51:57.564Z,0.10
2023-05-11T16:55:02.572Z,0.20
2023-05-11T16:58:07.191Z,0.25
2023-05-11T17:01:11.246Z,0.10
2023-05-11T17:04:15.735Z,0.08
2023-05-11T17:07:20.003Z,0.20
2023-05-11T17:10:24.199Z,0.30
2023-05-11T17:13:28.832Z,0.10
2023-05-11T17:16:33.259Z,0.40
2023-05-11T17:19:37.338Z,0.08
2023-05-11T17:22:41.711Z,0.10
2023-05-11T17:25:46.284Z,0.20
2023-05-11T17:28:50.805Z,0.10
2023-05-11T17:31:55.387Z,0.13
2023-05-11T17:35:00.234Z,0.00
2023-05-11T17:38:04.992Z,0.17
2023-05-11T17:41:09.575Z,0.35
2023-05-11T17:44:14.252Z,0.08
2023-05-11T17:47:18.465Z,0.10
2023-05-11T17:50:22.757Z,0.30
2023-05-11T17:53:27.150Z,0.10
2023-05-11T17:56:31.566Z,0.15
2023-05-11T17:59:36.358Z,0.20
2023-05-11T18:02:40.703Z,0.20
2023-05-11T18:05:48.754Z,0.10
2023-05-11T18:08:53.296Z,0.10
2023-05-11T18:11:57.701Z,0.20
2023-05-11T18:15:02.089Z,0.10
2023-05-11T18:18:06.796Z,0.20
2023-05-11T18:21:11.059Z,0.22
2023-05-11T18:24:15.277Z,0.32
2023-05-11T18:27:19.585Z,0.20
2023-05-11T18:30:24.105Z,0.10
2023-05-11T18:33:28.622Z,0.20
2023-05-11T18:36:32.747Z,0.10
2023-05-11T18:39:37.074Z,0.20
2023-05-11T18:42:41.461Z,0.20
2023-05-11T18:45:45.935Z,0.10
2023-05-11T18:48:50.166Z,0.10
2023-05-11T18:51:54.859Z,0.10
2023-05-11T18:54:58.913Z,0.10
2023-05-11T18:58:03.192Z,0.20
2023-05-11T19:01:07.714Z,0.10
2023-05-11T19:04:12.314Z,0.10
2023-05-11T19:07:19.953Z,0.10
2023-05-11T19:10:24.509Z,0.10
2023-05-11T19:13:29.036Z,0.10
2023-05-11T19:16:33.344Z,0.08
2023-05-11T19:19:37.711Z,0.10
2023-05-11T19:22:42.104Z,0.10
2023-05-11T19:25:46.610Z,0.08
2023-05-11T19:28:50.871Z,0.20
2023-05-11T19:31:55.114Z,0.20
2023-05-11T19:34:59.581Z,0.20
2023-05-11T19:38:03.819Z,0.20
2023-05-11T19:41:08.374Z,0.13
2023-05-11T19:44:12.781Z,0.20
2023-05-11T19:47:17.302Z,0.13
2023-05-11T19:50:24.235Z,0.30
2023-05-11T19:53:28.941Z,0.32
2023-05-11T19:56:33.728Z,0.20
2023-05-11T19:59:38.412Z,0.20
2023-05-11T20:02:42.710Z,0.28
2023-05-11T20:05:47.257Z,0.20
2023-05-11T20:08:51.711Z,0.20
2023-05-11T20:11:56.318Z,0.30
2023-05-11T20:15:00.919Z,0.35
2023-05-11T20:18:05.487Z,0.20
2023-05-11T20:21:09.913Z,0.30
2023-05-11T20:24:14.266Z,0.32
2023-05-11T20:27:18.673Z,0.40
2023-05-11T20:30:23.104Z,0.40
2023-05-11T20:36:35.071Z,0.50
2023-05-11T20:39:39.251Z,0.70
2023-05-11T20:42:43.647Z,0.90
2023-05-11T20:45:48.025Z,0.65
2023-05-11T20:48:52.659Z,0.60
2023-05-11T20:51:56.894Z,0.70
2023-05-11T20:55:01.195Z,0.50
2023-05-11T20:58:05.567Z,0.60
2023-05-11T21:01:10.134Z,0.80
2023-05-11T21:04:14.608Z,0.70
2023-05-11T21:07:19.162Z,0.60
2023-05-11T21:10:23.495Z,0.70
2023-05-11T21:13:28.166Z,0.35
2023-05-11T21:16:32.736Z,0.63
2023-05-11T21:19:37.172Z,0.60
2023-05-11T21:22:41.724Z,0.85
2023-05-11T21:25:46.163Z,0.40
2023-05-11T21:28:50.684Z,0.60
2023-05-11T21:31:54.869Z,0.70
2023-05-11T21:34:59.656Z,0.65
2023-05-11T21:38:04.094Z,0.63
2023-05-11T21:41:08.222Z,0.82
2023-05-11T21:44:12.520Z,0.60
2023-05-11T21:47:16.804Z,0.55
2023-05-11T21:50:21.609Z,0.70
2023-05-11T21:53:26.325Z,0.50
2023-05-11T21:56:30.387Z,0.57
2023-05-11T21:59:34.564Z,0.85
2023-05-11T22:02:39.094Z,0.60
2023-05-11T22:05:43.706Z,0.60
2023-05-11T22:08:48.180Z,0.70
2023-05-11T22:11:52.418Z,0.65
2023-05-11T22:14:56.624Z,0.45
2023-05-11T22:18:00.886Z,0.50
2023-05-11T22:21:05.264Z,0.85
2023-05-11T22:24:09.869Z,0.55
2023-05-11T22:27:14.342Z,0.63
2023-05-11T22:30:18.727Z,0.70
2023-05-11T22:33:23.555Z,0.55
2023-05-11T22:36:28.042Z,0.55
2023-05-11T22:39:32.469Z,0.77
2023-05-11T22:42:37.046Z,0.75
2023-05-11T22:45:41.183Z,0.60
2023-05-11T22:48:45.573Z,0.73
2023-05-11T22:51:49.902Z,0.80
2023-05-11T22:54:54.030Z,0.60
2023-05-11T22:57:58.219Z,0.73
2023-05-11T23:01:02.494Z,0.70
2023-05-11T23:04:07.338Z,0.70
2023-05-11T23:07:11.737Z,0.77
2023-05-11T23:10:16.118Z,0.50
2023-05-11T23:13:20.307Z,0.40
2023-05-11T23:16:24.710Z,0.52
2023-05-11T23:19:28.958Z,0.55
2023-05-11T23:22:33.343Z,0.77
2023-05-11T23:25:37.925Z,0.63
2023-05-11T23:28:42.471Z,1.00
2023-05-11T23:31:46.722Z,0.60
2023-05-11T23:34:51.272Z,0.55
2023-05-11T23:37:55.679Z,0.50
2023-05-11T23:41:00.356Z,0.90
2023-05-11T23:44:04.430Z,0.55
2023-05-11T23:47:08.793Z,0.90
2023-05-11T23:50:13.507Z,1.00
2023-05-11T23:53:17.861Z,0.77
2023-05-11T23:56:22.335Z,0.88
2023-05-11T23:59:26.769Z,0.68
